Time;durP1;ratioP1;P1;durP2;ratioP2;P2;SDS_P1;SDS_P2;PMS_P1;PMS_P2;Temp;Humidity;BMP_temperature;BMP_pressure;BME280_temperature;BME280_humidity;BME280_pressure;Samples;Min_cycle;Max_cycle;Signal;HPM_P1;HPM_P2
2023/05/26 00:01:47;;;;;;;4.70;3.10;;;23.30;67.50;;;;;;221934;1266;25207;-45
2023/05/26 00:06:52;;;;;;;5.10;3.60;;;23.30;67.50;;;;;;221780;1264;25246;-46
2023/05/26 00:11:57;;;;;;;7.50;2.90;;;23.30;67.30;;;;;;221767;1263;25248;-43
2023/05/26 00:17:02;;;;;;;4.80;3.30;;;23.40;66.80;;;;;;221709;1269;25348;-46
2023/05/26 00:22:07;;;;;;;5.00;3.20;;;23.40;67.30;;;;;;221683;1263;22495;-44
2023/05/26 00:27:11;;;;;;;4.40;3.50;;;23.40;67.00;;;;;;221903;1263;23023;-45
2023/05/26 00:32:16;;;;;;;4.80;3.70;;;23.40;67.10;;;;;;221885;1259;25315;-44
2023/05/26 00:37:22;;;;;;;3.90;3.50;;;23.40;66.90;;;;;;221474;1260;24302;-44
2023/05/26 00:42:26;;;;;;;5.10;3.70;;;23.40;67.60;;;;;;221964;1263;24171;-44
2023/05/26 00:47:31;;;;;;;4.60;3.40;;;23.40;67.50;;;;;;221474;1269;23142;-43
2023/05/26 00:52:35;;;;;;;3.00;2.80;;;23.50;67.00;;;;;;229292;1263;22586;-47
2023/05/26 00:57:39;;;;;;;4.00;3.30;;;23.50;66.50;;;;;;227817;1271;25361;-45
2023/05/26 01:02:46;;;;;;;5.30;3.50;;;23.70;66.20;;;;;;228262;1269;22633;-44
2023/05/26 01:07:50;;;;;;;5.20;3.40;;;23.70;66.50;;;;;;221291;1266;22792;-44
2023/05/26 01:13:15;;;;;;;4.50;3.50;;;23.70;67.10;;;;;;221463;1267;25265;-44
2023/05/26 01:18:48;;;;;;;3.20;3.00;;;23.60;68.00;;;;;;221586;1268;22519;-43
2023/05/26 01:24:16;;;;;;;4.20;3.30;;;23.50;68.10;;;;;;221312;1257;24187;-44
2023/05/26 01:29:24;;;;;;;4.10;3.70;;;23.50;67.60;;;;;;221595;1261;24446;-43
2023/05/26 01:34:29;;;;;;;4.00;3.60;;;23.50;68.00;;;;;;221571;1265;25197;-44
2023/05/26 01:39:34;;;;;;;5.00;3.30;;;23.60;68.10;;;;;;221319;1266;22532;-44
2023/05/26 01:44:54;;;;;;;4.20;3.40;;;23.60;68.20;;;;;;221538;1270;22538;-43
2023/05/26 01:50:01;;;;;;;3.80;3.30;;;23.70;68.70;;;;;;221648;1265;25271;-44
2023/05/26 01:55:07;;;;;;;4.50;3.80;;;23.60;67.90;;;;;;221520;1248;23739;-44
2023/05/26 02:00:12;;;;;;;5.20;3.60;;;23.60;67.60;;;;;;221627;1271;22647;-45
2023/05/26 02:05:19;;;;;;;4.00;3.10;;;23.60;67.90;;;;;;221861;1265;22754;-44
2023/05/26 02:10:23;;;;;;;4.30;3.90;;;23.60;67.10;;;;;;221467;1271;223372;-46
2023/05/26 02:15:28;;;;;;;4.50;3.40;;;23.60;67.20;;;;;;221724;1269;23872;-45
2023/05/26 02:20:32;;;;;;;3.50;3.20;;;23.50;67.30;;;;;;221394;1259;22522;-44
2023/05/26 02:25:36;;;;;;;3.60;2.90;;;23.40;67.50;;;;;;221595;1268;22508;-43
2023/05/26 02:30:40;;;;;;;3.80;3.40;;;23.40;67.80;;;;;;221609;1270;23825;-44
2023/05/26 02:35:45;;;;;;;3.30;3.00;;;23.40;67.20;;;;;;221541;1265;24372;-44
2023/05/26 02:40:50;;;;;;;3.70;3.30;;;23.40;67.20;;;;;;221615;1265;22889;-42
2023/05/26 02:45:54;;;;;;;3.50;3.20;;;23.40;67.30;;;;;;221540;1256;22517;-46
2023/05/26 02:50:59;;;;;;;3.50;3.20;;;23.40;66.90;;;;;;221470;1267;22687;-43
2023/05/26 02:56:03;;;;;;;3.20;3.00;;;23.40;66.90;;;;;;221549;1258;22774;-44
2023/05/26 03:01:07;;;;;;;4.70;3.30;;;23.40;66.70;;;;;;229457;1268;22142;-44
2023/05/26 03:06:12;;;;;;;3.40;3.10;;;23.50;66.60;;;;;;224156;1270;27774;-53
2023/05/26 03:11:17;;;;;;;4.30;3.50;;;23.60;66.30;;;;;;221669;1258;23131;-44
2023/05/26 03:16:23;;;;;;;3.00;2.80;;;23.40;65.60;;;;;;221553;1258;24234;-46
2023/05/26 03:21:27;;;;;;;3.50;3.20;;;23.40;65.70;;;;;;221612;1268;25230;-44
2023/05/26 03:26:52;;;;;;;3.00;2.80;;;23.30;66.50;;;;;;221675;1264;22525;-45
2023/05/26 03:31:57;;;;;;;6.40;2.90;;;23.30;66.00;;;;;;221836;1259;22525;-48
2023/05/26 03:37:01;;;;;;;3.10;2.90;;;23.30;66.10;;;;;;221690;1266;25214;-45
2023/05/26 03:42:06;;;;;;;3.10;2.80;;;23.30;66.60;;;;;;221659;1267;25931;-45
2023/05/26 03:47:10;;;;;;;3.10;2.50;;;23.30;66.00;;;;;;221731;1257;24375;-45
2023/05/26 03:52:15;;;;;;;2.60;2.40;;;23.30;65.80;;;;;;221738;1267;22529;-44
2023/05/26 03:57:19;;;;;;;3.20;2.70;;;23.30;66.80;;;;;;221885;1266;22530;-45
2023/05/26 04:02:23;;;;;;;2.70;2.50;;;23.30;65.60;;;;;;221717;1264;23600;-47
2023/05/26 04:07:28;;;;;;;2.70;2.50;;;23.20;65.60;;;;;;221635;1259;24327;-48
2023/05/26 04:12:35;;;;;;;4.30;2.90;;;23.20;65.60;;;;;;221679;1257;22791;-45
2023/05/26 04:17:41;;;;;;;2.60;2.40;;;23.20;65.60;;;;;;221633;1258;22520;-43
2023/05/26 04:22:45;;;;;;;2.80;2.60;;;23.20;65.60;;;;;;221760;1270;25491;-45
2023/05/26 04:27:52;;;;;;;3.10;2.80;;;23.20;65.50;;;;;;221640;1271;22515;-45
2023/05/26 04:33:12;;;;;;;3.00;2.80;;;23.20;65.70;;;;;;221669;1267;22725;-43
2023/05/26 04:38:36;;;;;;;3.20;3.00;;;23.20;65.30;;;;;;221680;1271;22519;-45
2023/05/26 04:43:43;;;;;;;2.90;2.50;;;23.20;65.30;;;;;;221862;1256;22667;-43
2023/05/26 04:48:47;;;;;;;2.90;2.10;;;23.20;65.30;;;;;;220479;1269;25548;-43
2023/05/26 04:53:52;;;;;;;2.80;2.60;;;23.20;65.40;;;;;;220497;1267;22756;-43
2023/05/26 04:58:56;;;;;;;3.00;2.80;;;23.30;65.20;;;;;;220563;1267;22576;-45
2023/05/26 05:04:00;;;;;;;3.00;2.70;;;23.30;65.70;;;;;;220906;1264;24996;-43
2023/05/26 05:09:06;;;;;;;2.60;2.40;;;23.20;65.30;;;;;;221704;1272;25387;-45
2023/05/26 05:14:11;;;;;;;3.60;3.30;;;23.20;65.30;;;;;;221600;1265;22573;-46
2023/05/26 05:19:15;;;;;;;2.90;2.70;;;23.30;65.10;;;;;;221663;1267;25463;-45
2023/05/26 05:24:25;;;;;;;2.90;2.70;;;23.30;65.00;;;;;;221383;1257;25523;-43
2023/05/26 05:29:29;;;;;;;2.60;2.40;;;23.30;65.10;;;;;;224169;1272;22960;-44
2023/05/26 05:34:36;;;;;;;2.30;2.10;;;23.30;65.00;;;;;;221612;1257;25479;-43
2023/05/26 05:39:40;;;;;;;2.50;2.30;;;23.30;65.00;;;;;;221608;1264;24371;-44
2023/05/26 05:44:45;;;;;;;3.00;2.80;;;23.30;64.90;;;;;;221666;1266;22512;-45
2023/05/26 05:49:49;;;;;;;2.50;2.30;;;23.30;65.60;;;;;;221497;1260;23860;-41
2023/05/26 05:54:55;;;;;;;2.10;2.00;;;23.40;65.80;;;;;;221680;1261;23108;-42
2023/05/26 05:59:59;;;;;;;6.30;2.50;;;23.40;65.40;;;;;;221771;1248;25221;-47
2023/05/26 06:05:15;;;;;;;4.60;2.30;;;23.40;65.00;;;;;;221613;1257;22514;-44
2023/05/26 06:10:20;;;;;;;2.30;2.10;;;23.40;65.30;;;;;;221674;1248;22650;-45
2023/05/26 06:15:24;;;;;;;4.10;3.70;;;23.40;65.30;;;;;;221671;1258;22508;-42
2023/05/26 06:20:29;;;;;;;2.50;2.30;;;23.30;65.50;;;;;;221665;1264;22694;-43
2023/05/26 06:25:33;;;;;;;3.00;2.50;;;23.40;65.60;;;;;;222032;1257;22526;-42
2023/05/26 06:30:38;;;;;;;3.80;2.20;;;23.50;65.70;;;;;;221872;1259;22640;-42
2023/05/26 06:35:55;;;;;;;3.20;2.10;;;23.50;65.40;;;;;;221596;1264;22636;-43
2023/05/26 06:40:59;;;;;;;3.80;2.30;;;23.50;65.30;;;;;;221699;1267;25449;-43
2023/05/26 06:46:03;;;;;;;2.60;2.20;;;23.60;66.00;;;;;;221887;1263;24316;-41
2023/05/26 06:51:07;;;;;;;7.20;2.30;;;23.70;65.10;;;;;;221594;1257;24244;-43
2023/05/26 06:56:12;;;;;;;7.90;2.80;;;23.60;65.40;;;;;;221745;1256;25317;-43
2023/05/26 07:01:16;;;;;;;4.50;2.00;;;23.50;65.50;;;;;;221816;1267;22741;-44
2023/05/26 07:06:20;;;;;;;9.10;2.50;;;23.60;65.30;;;;;;221652;1257;22754;-45
2023/05/26 07:11:30;;;;;;;4.80;2.20;;;23.70;64.90;;;;;;221716;1256;24239;-42
2023/05/26 07:16:36;;;;;;;6.00;2.60;;;23.60;65.30;;;;;;221558;1252;22540;-41
2023/05/26 07:21:41;;;;;;;6.60;2.50;;;23.60;65.00;;;;;;229459;1255;22347;-42
2023/05/26 07:26:45;;;;;;;4.60;2.40;;;23.60;65.20;;;;;;229404;1264;22192;-45
2023/05/26 07:31:49;;;;;;;3.60;2.00;;;23.80;63.80;;;;;;223069;1260;24294;-45
2023/05/26 07:36:53;;;;;;;3.40;2.00;;;23.90;63.40;;;;;;221319;1256;22877;-43
2023/05/26 07:41:57;;;;;;;5.70;2.60;;;23.70;64.10;;;;;;221678;1256;25433;-45
2023/05/26 07:47:04;;;;;;;3.20;1.90;;;23.60;64.40;;;;;;221573;1263;25345;-43
2023/05/26 07:52:08;;;;;;;2.90;2.60;;;23.40;64.50;;;;;;221757;1265;25965;-51
2023/05/26 07:57:12;;;;;;;3.30;2.60;;;23.50;64.50;;;;;;221770;1264;22544;-51
2023/05/26 08:02:32;;;;;;;3.10;2.30;;;23.50;64.30;;;;;;221438;1260;22514;-48
2023/05/26 08:07:36;;;;;;;7.50;2.70;;;23.60;64.00;;;;;;221699;1259;22507;-52
2023/05/26 08:12:41;;;;;;;5.50;2.90;;;23.70;63.60;;;;;;221640;1257;24193;-54
2023/05/26 08:17:45;;;;;;;3.60;2.60;;;23.60;63.80;;;;;;221814;1256;22523;-56
2023/05/26 08:22:49;;;;;;;7.60;2.70;;;23.60;63.70;;;;;;221518;1257;25261;-50
2023/05/26 08:27:55;;;;;;;3.60;2.50;;;23.60;63.80;;;;;;221774;1257;22524;-53
2023/05/26 08:32:59;;;;;;;3.30;2.50;;;23.60;63.60;;;;;;221786;1258;25257;-51
2023/05/26 08:38:04;;;;;;;6.80;2.50;;;23.60;63.40;;;;;;221719;1265;24373;-53
2023/05/26 08:43:12;;;;;;;5.10;2.40;;;23.70;63.20;;;;;;221653;1257;22921;-53
2023/05/26 08:48:17;;;;;;;5.90;2.60;;;23.70;62.90;;;;;;221735;1259;24173;-51
2023/05/26 08:53:23;;;;;;;3.80;2.40;;;23.70;62.90;;;;;;221786;1263;25413;-52
2023/05/26 08:58:29;;;;;;;4.90;2.10;;;23.80;62.70;;;;;;221721;1250;23042;-52
2023/05/26 09:03:32;;;;;;;4.20;2.30;;;23.90;62.50;;;;;;221744;1265;22515;-52
2023/05/26 09:08:37;;;;;;;6.00;2.80;;;23.80;62.90;;;;;;221765;1259;24168;-50
2023/05/26 09:13:41;;;;;;;5.90;2.60;;;23.90;62.40;;;;;;221828;1268;22652;-54
2023/05/26 09:18:45;;;;;;;8.00;2.80;;;23.90;62.30;;;;;;221952;1259;22525;-54
2023/05/26 09:23:59;;;;;;;6.80;2.30;;;23.80;62.70;;;;;;221759;1258;22774;-51
2023/05/26 09:29:05;;;;;;;2.80;2.10;;;23.90;62.30;;;;;;221818;1259;22807;-54
2023/05/26 09:34:11;;;;;;;5.40;2.30;;;23.90;62.10;;;;;;221814;1259;24219;-52
2023/05/26 09:39:16;;;;;;;5.10;2.20;;;23.90;62.00;;;;;;221697;1259;22524;-53
2023/05/26 09:44:20;;;;;;;3.00;2.40;;;23.90;62.40;;;;;;221657;1265;22535;-55
2023/05/26 09:49:24;;;;;;;4.70;2.70;;;23.90;62.40;;;;;;221849;1263;24695;-51
2023/05/26 09:54:28;;;;;;;5.10;2.40;;;24.00;62.20;;;;;;221872;1264;22518;-52
2023/05/26 09:59:38;;;;;;;12.10;3.40;;;24.00;62.40;;;;;;221805;1267;25314;-51
2023/05/26 10:04:43;;;;;;;6.60;2.40;;;24.10;62.00;;;;;;221781;1263;22514;-51
2023/05/26 10:10:14;;;;;;;4.30;2.70;;;24.10;62.40;;;;;;221592;1265;23386;-52
2023/05/26 10:15:18;;;;;;;5.70;2.90;;;24.10;61.90;;;;;;221619;1265;22615;-50
2023/05/26 10:20:23;;;;;;;5.10;4.00;;;24.10;60.50;;;;;;221778;1263;25611;-53
2023/05/26 10:26:01;;;;;;;8.10;2.80;;;24.10;61.30;;;;;;221701;1259;22536;-52
2023/05/26 10:31:06;;;;;;;4.30;2.50;;;24.10;61.20;;;;;;221923;1256;22823;-54
2023/05/26 10:36:14;;;;;;;14.90;3.30;;;24.10;61.90;;;;;;221707;1263;24180;-47
2023/05/26 10:41:38;;;;;;;3.50;2.10;;;24.30;61.60;;;;;;221968;1256;23748;-51
2023/05/26 10:46:47;;;;;;;8.90;2.90;;;24.30;61.40;;;;;;221768;1267;25236;-48
2023/05/26 10:51:52;;;;;;;5.00;2.40;;;24.30;61.20;;;;;;221757;1257;22529;-52
2023/05/26 10:56:56;;;;;;;6.90;2.30;;;24.40;61.20;;;;;;221721;1259;24184;-53
2023/05/26 11:02:04;;;;;;;7.90;2.40;;;24.40;60.50;;;;;;221730;1256;25304;-53
2023/05/26 11:07:24;;;;;;;5.20;2.40;;;24.40;60.50;;;;;;221831;1263;25485;-53
2023/05/26 11:12:35;;;;;;;8.70;2.90;;;24.40;60.40;;;;;;221798;1265;22621;-51
2023/05/26 11:17:39;;;;;;;8.10;2.60;;;24.40;60.30;;;;;;221819;1261;22869;-50
2023/05/26 11:22:43;;;;;;;7.30;2.50;;;24.40;60.10;;;;;;221674;1268;22520;-52
2023/05/26 11:27:48;;;;;;;6.20;3.40;;;24.50;60.30;;;;;;221757;1263;26292;-51
2023/05/26 11:32:53;;;;;;;4.40;2.20;;;24.50;60.10;;;;;;221913;1256;25227;-51
2023/05/26 11:37:57;;;;;;;4.40;2.40;;;24.50;59.80;;;;;;221796;1266;22534;-50
2023/05/26 11:43:01;;;;;;;3.00;2.30;;;24.50;59.60;;;;;;221926;1256;25347;-52
2023/05/26 11:48:05;;;;;;;3.90;2.40;;;24.60;59.60;;;;;;221750;1247;22596;-53
2023/05/26 11:53:10;;;;;;;3.50;2.20;;;24.60;59.50;;;;;;221594;1265;24922;-52
2023/05/26 11:58:16;;;;;;;4.00;2.60;;;24.50;59.50;;;;;;221777;1259;22647;-51
2023/05/26 12:03:20;;;;;;;4.50;2.30;;;24.50;59.50;;;;;;222021;1256;22651;-52
2023/05/26 12:08:25;;;;;;;3.70;2.20;;;24.50;59.40;;;;;;221672;1271;22524;-52
2023/05/26 12:13:29;;;;;;;3.10;1.90;;;24.50;59.70;;;;;;221955;1256;22576;-52
2023/05/26 12:18:33;;;;;;;4.60;2.60;;;24.50;59.30;;;;;;221772;1259;25319;-46
2023/05/26 12:23:39;;;;;;;4.70;2.40;;;24.60;59.30;;;;;;221863;1266;24311;-44
2023/05/26 12:28:43;;;;;;;5.10;2.00;;;24.50;59.20;;;;;;221598;1266;22498;-45
2023/05/26 12:33:47;;;;;;;3.70;2.40;;;24.60;59.10;;;;;;221799;1256;24224;-43
2023/05/26 12:38:52;;;;;;;6.80;2.50;;;24.50;59.00;;;;;;221935;1256;22805;-44
2023/05/26 12:43:58;;;;;;;2.70;2.20;;;24.60;59.50;;;;;;221638;1256;22517;-45
2023/05/26 12:49:02;;;;;;;4.10;2.30;;;24.70;58.70;;;;;;221665;1266;22631;-46
2023/05/26 12:54:08;;;;;;;3.00;2.70;;;24.70;59.00;;;;;;221983;1256;24780;-47
2023/05/26 12:59:13;;;;;;;4.80;2.50;;;24.70;59.30;;;;;;221732;1255;23889;-45
2023/05/26 13:04:24;;;;;;;;;;;24.70;59.20;;;;;;221756;1265;23699;-43
2023/05/26 13:09:31;;;;;;;8.70;3.00;;;24.70;59.80;;;;;;221656;1256;22531;-44
2023/05/26 13:14:35;;;;;;;5.00;2.40;;;24.70;59.90;;;;;;221514;1259;22545;-45
2023/05/26 13:19:40;;;;;;;5.40;2.30;;;24.70;59.10;;;;;;221306;1262;23368;-46
2023/05/26 13:24:44;;;;;;;4.50;2.40;;;24.70;58.80;;;;;;228600;1263;22556;-43
2023/05/26 13:29:48;;;;;;;5.80;2.50;;;24.70;58.50;;;;;;221677;1262;22511;-45
2023/05/26 13:34:52;;;;;;;3.00;2.30;;;24.70;58.60;;;;;;221626;1256;22586;-43
2023/05/26 13:39:56;;;;;;;4.50;2.30;;;24.60;58.60;;;;;;221692;1265;22514;-44
2023/05/26 13:45:02;;;;;;;3.40;2.60;;;24.60;58.60;;;;;;221718;1268;22626;-42
2023/05/26 13:50:07;;;;;;;8.90;2.40;;;24.60;58.50;;;;;;221739;1256;22559;-45
2023/05/26 13:55:25;;;;;;;3.70;1.90;;;24.60;59.00;;;;;;221626;1267;24176;-42
2023/05/26 14:00:36;;;;;;;3.20;2.20;;;24.60;58.80;;;;;;217265;1288;542607;-44
2023/05/26 14:05:41;;;;;;;3.20;2.10;;;24.60;58.60;;;;;;220140;1268;22530;-43
2023/05/26 14:10:45;;;;;;;4.10;2.20;;;24.50;58.60;;;;;;219843;1279;223155;-42
2023/05/26 14:15:51;;;;;;;3.50;2.20;;;24.60;58.70;;;;;;220012;1274;22567;-43
2023/05/26 14:20:55;;;;;;;4.40;2.20;;;24.50;58.70;;;;;;220128;1266;24148;-46
2023/05/26 14:26:22;;;;;;;7.50;2.20;;;24.50;58.80;;;;;;220166;1267;22527;-43
2023/05/26 14:31:26;;;;;;;7.50;2.40;;;24.50;58.80;;;;;;220703;1271;22622;-43
2023/05/26 14:36:31;;;;;;;3.50;2.50;;;24.50;58.80;;;;;;220533;1267;24273;-44
2023/05/26 14:41:35;;;;;;;3.00;1.80;;;24.50;58.80;;;;;;221035;1267;22616;-44
2023/05/26 14:46:41;;;;;;;3.30;1.90;;;24.50;59.10;;;;;;220776;1277;24210;-43
2023/05/26 14:51:45;;;;;;;5.10;2.70;;;24.50;58.80;;;;;;220780;1267;22812;-48
2023/05/26 14:56:50;;;;;;;2.50;1.80;;;24.50;58.50;;;;;;220914;1264;25610;-45
2023/05/26 15:01:54;;;;;;;8.50;2.20;;;24.50;58.60;;;;;;220523;1270;22630;-43
2023/05/26 15:07:00;;;;;;;4.20;2.10;;;24.50;59.10;;;;;;220703;1270;25921;-43
2023/05/26 15:12:04;;;;;;;5.50;2.50;;;24.60;60.60;;;;;;221089;1261;22609;-43
2023/05/26 15:17:10;;;;;;;7.90;3.40;;;24.70;62.00;;;;;;221260;1259;25440;-41
2023/05/26 15:22:15;;;;;;;8.40;3.00;;;24.80;62.60;;;;;;221298;1260;24234;-41
2023/05/26 15:27:19;;;;;;;4.90;3.30;;;24.80;62.30;;;;;;221221;1267;22842;-42
2023/05/26 15:32:23;;;;;;;12.80;3.40;;;24.80;61.50;;;;;;221584;1261;24218;-44
2023/05/26 15:37:28;;;;;;;13.50;4.10;;;24.60;60.30;;;;;;221081;1267;22599;-43
2023/05/26 15:42:42;;;;;;;5.90;2.50;;;24.60;54.10;;;;;;221147;1259;25323;-44
2023/05/26 15:47:46;;;;;;;9.10;3.20;;;24.50;53.80;;;;;;221077;1266;22633;-43
2023/05/26 15:52:50;;;;;;;7.20;3.00;;;24.60;53.50;;;;;;221159;1267;22990;-44
2023/05/26 15:57:57;;;;;;;8.00;3.10;;;24.70;52.50;;;;;;221365;1258;22556;-44
2023/05/26 16:03:04;;;;;;;13.70;3.10;;;24.60;52.70;;;;;;221322;1270;22524;-43
2023/05/26 16:08:09;;;;;;;10.80;3.60;;;24.40;51.90;;;;;;221153;1267;22541;-43
2023/05/26 16:13:14;;;;;;;11.00;3.60;;;24.40;51.20;;;;;;221004;1266;22515;-44
2023/05/26 16:18:18;;;;;;;7.80;3.50;;;24.40;49.00;;;;;;221162;1267;25401;-43
2023/05/26 16:23:22;;;;;;;11.00;2.90;;;24.30;48.20;;;;;;221214;1254;22517;-44
2023/05/26 16:28:27;;;;;;;11.70;3.40;;;24.30;47.20;;;;;;221221;1266;22724;-46
2023/05/26 16:33:31;;;;;;;11.30;3.30;;;24.30;45.20;;;;;;220976;1264;24193;-45
2023/05/26 16:38:37;;;;;;;10.80;2.90;;;24.30;45.70;;;;;;222920;1267;24250;-44
2023/05/26 16:43:41;;;;;;;18.40;4.30;;;24.30;45.50;;;;;;221271;1252;23363;-43
2023/05/26 16:48:50;;;;;;;10.80;3.70;;;24.40;45.40;;;;;;220983;1259;22553;-43
2023/05/26 16:53:54;;;;;;;7.30;3.50;;;24.30;45.60;;;;;;221037;1267;22633;-45
2023/05/26 16:58:58;;;;;;;14.30;3.00;;;24.30;45.50;;;;;;220997;1251;22898;-45
2023/05/26 17:04:02;;;;;;;14.50;4.00;;;24.20;45.90;;;;;;220891;1273;25071;-50
2023/05/26 17:09:07;;;;;;;13.70;3.40;;;24.30;46.20;;;;;;221383;1267;24343;-45
2023/05/26 17:14:11;;;;;;;7.60;2.80;;;24.20;46.40;;;;;;220965;1266;24055;-46
2023/05/26 17:19:17;;;;;;;15.50;3.10;;;24.20;45.30;;;;;;221126;1268;22610;-44
2023/05/26 17:24:25;;;;;;;10.80;3.30;;;24.20;45.10;;;;;;221315;1251;22637;-53
2023/05/26 17:29:29;;;;;;;9.90;3.30;;;24.10;44.60;;;;;;221349;1267;22716;-50
2023/05/26 17:34:33;;;;;;;15.90;3.40;;;24.00;44.70;;;;;;221113;1274;24203;-51
2023/05/26 17:39:37;;;;;;;10.50;3.70;;;24.00;44.20;;;;;;221341;1252;25285;-52
2023/05/26 17:44:42;;;;;;;16.10;3.90;;;24.10;44.70;;;;;;221293;1254;24084;-53
2023/05/26 17:49:46;;;;;;;13.60;3.40;;;24.00;44.00;;;;;;221100;1273;22530;-53
2023/05/26 17:54:50;;;;;;;16.40;4.20;;;24.00;44.90;;;;;;221346;1273;22742;-54
2023/05/26 17:59:55;;;;;;;17.30;4.90;;;24.10;46.40;;;;;;221279;1267;22556;-53
2023/05/26 18:04:59;;;;;;;16.20;3.90;;;24.20;47.40;;;;;;221339;1273;22991;-53
2023/05/26 18:10:03;;;;;;;15.60;3.90;;;24.10;47.30;;;;;;220907;1269;22521;-54
2023/05/26 18:15:08;;;;;;;21.00;5.10;;;24.10;48.00;;;;;;229098;1270;22170;-53
2023/05/26 18:20:12;;;;;;;16.10;3.70;;;24.20;49.10;;;;;;229076;1273;22223;-53
2023/05/26 18:25:16;;;;;;;23.80;7.10;;;24.30;49.10;;;;;;223850;1272;22517;-55
2023/05/26 18:30:21;;;;;;;16.30;5.20;;;24.40;49.70;;;;;;221083;1268;24321;-55
2023/05/26 18:35:25;;;;;;;16.70;6.00;;;24.30;50.00;;;;;;221338;1274;22549;-58
2023/05/26 18:40:29;;;;;;;16.20;5.00;;;24.10;51.10;;;;;;221302;1274;24402;-54
2023/05/26 18:45:34;;;;;;;18.50;6.50;;;24.10;51.00;;;;;;221372;1274;22669;-53
2023/05/26 18:50:38;;;;;;;19.20;6.40;;;24.10;52.10;;;;;;221321;1268;22530;-49
2023/05/26 18:55:42;;;;;;;11.70;4.70;;;24.20;54.40;;;;;;221178;1274;22788;-52
2023/05/26 19:00:48;;;;;;;14.90;4.50;;;24.20;55.30;;;;;;221117;1271;22725;-55
2023/05/26 19:05:52;;;;;;;12.60;4.90;;;24.10;55.40;;;;;;221454;1270;22636;-56
2023/05/26 19:10:57;;;;;;;17.50;5.30;;;24.10;55.10;;;;;;221144;1274;24228;-49
2023/05/26 19:16:02;;;;;;;14.80;5.20;;;24.00;54.50;;;;;;221300;1274;22566;-54
2023/05/26 19:21:07;;;;;;;13.90;4.30;;;24.00;55.00;;;;;;221211;1273;22518;-56
2023/05/26 19:26:11;;;;;;;12.70;5.00;;;24.10;54.60;;;;;;221245;1274;25389;-48
2023/05/26 19:31:17;;;;;;;13.20;5.00;;;24.00;54.60;;;;;;221421;1273;22640;-57
2023/05/26 19:36:22;;;;;;;14.30;6.40;;;24.00;54.80;;;;;;221252;1268;22678;-54
2023/05/26 19:41:27;;;;;;;9.10;4.00;;;24.00;54.80;;;;;;221272;1273;24342;-56
2023/05/26 19:46:31;;;;;;;11.10;4.30;;;24.00;55.00;;;;;;221403;1268;24355;-54
2023/05/26 19:51:39;;;;;;;9.20;4.10;;;24.00;55.00;;;;;;221434;1273;25319;-54
2023/05/26 19:56:43;;;;;;;9.70;4.60;;;23.90;55.10;;;;;;221552;1273;22513;-55
2023/05/26 20:01:47;;;;;;;7.80;4.10;;;23.90;55.10;;;;;;221346;1273;22602;-51
2023/05/26 20:06:52;;;;;;;9.50;4.00;;;23.90;55.60;;;;;;221277;1266;23714;-55
2023/05/26 20:11:56;;;;;;;8.40;4.40;;;23.90;55.40;;;;;;221414;1273;25336;-54
2023/05/26 20:17:00;;;;;;;10.80;4.00;;;23.90;55.50;;;;;;221226;1272;23925;-52
2023/05/26 20:22:05;;;;;;;11.50;4.90;;;23.80;55.50;;;;;;221471;1273;24191;-56
2023/05/26 20:27:09;;;;;;;9.90;3.40;;;23.80;55.50;;;;;;221466;1270;22649;-54
2023/05/26 20:32:14;;;;;;;13.10;5.00;;;23.80;55.60;;;;;;221403;1267;22788;-52
2023/05/26 20:37:18;;;;;;;9.00;3.60;;;23.80;55.70;;;;;;221381;1268;22520;-55
2023/05/26 20:42:25;;;;;;;10.20;4.40;;;23.80;56.10;;;;;;221402;1268;24168;-57
2023/05/26 20:47:30;;;;;;;8.10;3.80;;;23.80;55.80;;;;;;221416;1270;22586;-55
2023/05/26 20:52:34;;;;;;;6.10;3.60;;;23.80;56.20;;;;;;221001;1274;22540;-55
2023/05/26 20:57:40;;;;;;;9.20;4.20;;;23.80;56.40;;;;;;221365;1274;24221;-53
2023/05/26 21:02:44;;;;;;;7.40;3.70;;;23.70;56.10;;;;;;221211;1274;22727;-55
2023/05/26 21:07:53;;;;;;;7.10;3.60;;;23.80;56.10;;;;;;221110;1251;22609;-54
2023/05/26 21:12:58;;;;;;;6.90;3.30;;;23.70;56.10;;;;;;221499;1274;24376;-53
2023/05/26 21:18:02;;;;;;;6.30;3.50;;;23.70;56.20;;;;;;221332;1274;23153;-53
2023/05/26 21:23:06;;;;;;;7.10;3.10;;;23.70;56.20;;;;;;221249;1274;22571;-55
2023/05/26 21:28:12;;;;;;;7.70;3.80;;;23.70;56.30;;;;;;221254;1274;22869;-54
2023/05/26 21:33:16;;;;;;;8.60;3.50;;;23.90;56.00;;;;;;221215;1270;24190;-51
2023/05/26 21:38:21;;;;;;;5.00;2.90;;;23.80;56.20;;;;;;221388;1270;22527;-56
2023/05/26 21:43:25;;;;;;;5.70;3.00;;;23.80;56.10;;;;;;221414;1273;25480;-52
2023/05/26 21:48:29;;;;;;;8.10;3.20;;;23.80;56.10;;;;;;221724;1265;22750;-55
2023/05/26 21:53:34;;;;;;;6.80;3.60;;;23.80;56.30;;;;;;221619;1273;24318;-54
2023/05/26 21:58:43;;;;;;;5.60;3.20;;;23.70;56.30;;;;;;221687;1273;24099;-53
2023/05/26 22:03:48;;;;;;;6.90;3.80;;;23.70;56.40;;;;;;221672;1250;25458;-53
2023/05/26 22:08:59;;;;;;;6.70;3.30;;;23.70;56.30;;;;;;221613;1271;25209;-52
2023/05/26 22:14:06;;;;;;;6.70;3.10;;;23.70;56.40;;;;;;221646;1273;22800;-52
2023/05/26 22:19:28;;;;;;;6.60;3.50;;;23.70;56.40;;;;;;221662;1272;25210;-53
2023/05/26 22:24:33;;;;;;;5.20;2.70;;;23.70;56.40;;;;;;221737;1272;22563;-52
2023/05/26 22:29:38;;;;;;;5.60;2.70;;;23.70;56.50;;;;;;221735;1272;22644;-54
2023/05/26 22:34:44;;;;;;;5.60;2.90;;;23.60;56.50;;;;;;221486;1250;22533;-52
2023/05/26 22:39:48;;;;;;;4.60;3.00;;;23.60;56.50;;;;;;221470;1273;22581;-56
2023/05/26 22:44:52;;;;;;;5.10;2.90;;;23.60;56.60;;;;;;221465;1273;22529;-56
2023/05/26 22:49:56;;;;;;;4.50;2.80;;;23.60;56.70;;;;;;221246;1273;24351;-55
2023/05/26 22:55:01;;;;;;;6.60;2.60;;;23.50;56.80;;;;;;221391;1273;22536;-53
2023/05/26 23:00:07;;;;;;;6.00;3.30;;;23.50;57.00;;;;;;221335;1272;22962;-53
2023/05/26 23:05:11;;;;;;;5.40;2.90;;;23.50;57.30;;;;;;221561;1272;22536;-55
2023/05/26 23:10:15;;;;;;;4.10;2.40;;;23.50;56.90;;;;;;221532;1271;24045;-52
2023/05/26 23:15:20;;;;;;;5.00;2.90;;;23.50;56.90;;;;;;221459;1272;22511;-54
2023/05/26 23:20:25;;;;;;;4.20;2.60;;;23.40;57.00;;;;;;221682;1272;24190;-57
2023/05/26 23:25:29;;;;;;;3.20;2.70;;;23.40;57.00;;;;;;221788;1265;22517;-55
2023/05/26 23:30:33;;;;;;;4.40;2.80;;;23.40;57.40;;;;;;221620;1272;24246;-53
2023/05/26 23:35:38;;;;;;;4.70;2.40;;;23.40;57.10;;;;;;221571;1272;22534;-53
2023/05/26 23:40:42;;;;;;;5.20;2.80;;;23.30;57.20;;;;;;221491;1272;22640;-53
2023/05/26 23:45:46;;;;;;;4.10;2.70;;;23.40;57.20;;;;;;221513;1270;22643;-54
2023/05/26 23:50:50;;;;;;;5.60;3.20;;;23.30;57.50;;;;;;221544;1271;22756;-54
2023/05/26 23:55:54;;;;;;;5.10;2.70;;;23.30;57.40;;;;;;221489;1272;24069;-53
